sensor_id;sensor_type;location;lat;lon;timestamp;pressure;altitude;pressure_sealevel;temperature;humidity
75045;BME280;63614;56.026;35.960;2023-10-13T00:02:07;97884.91;;;9.31;76.91
75045;BME280;63614;56.026;35.960;2023-10-13T00:04:33;97884.56;;;9.27;76.18
75045;BME280;63614;56.026;35.960;2023-10-13T00:07:01;97890.22;;;9.36;75.64
75045;BME280;63614;56.026;35.960;2023-10-13T00:09:28;97889.97;;;9.44;75.52
75045;BME280;63614;56.026;35.960;2023-10-13T00:12:06;97884.25;;;9.54;75.40
75045;BME280;63614;56.026;35.960;2023-10-13T00:14:39;97885.13;;;9.48;76.60
75045;BME280;63614;56.026;35.960;2023-10-13T00:17:06;97884.75;;;9.63;77.21
75045;BME280;63614;56.026;35.960;2023-10-13T00:19:41;97884.97;;;9.61;78.11
75045;BME280;63614;56.026;35.960;2023-10-13T00:22:17;97882.16;;;9.63;78.78
75045;BME280;63614;56.026;35.960;2023-10-13T00:24:47;97883.97;;;9.62;79.20
75045;BME280;63614;56.026;35.960;2023-10-13T00:27:16;97892.44;;;9.70;78.89
75045;BME280;63614;56.026;35.960;2023-10-13T00:30:03;97889.88;;;9.51;79.73
75045;BME280;63614;56.026;35.960;2023-10-13T00:32:44;97896.22;;;9.55;79.52
75045;BME280;63614;56.026;35.960;2023-10-13T00:35:12;97896.44;;;9.54;79.65
75045;BME280;63614;56.026;35.960;2023-10-13T00:37:39;97894.91;;;9.46;79.84
75045;BME280;63614;56.026;35.960;2023-10-13T00:40:10;97896.00;;;9.57;79.63
75045;BME280;63614;56.026;35.960;2023-10-13T00:43:03;97905.53;;;9.44;79.83
75045;BME280;63614;56.026;35.960;2023-10-13T00:45:44;97899.69;;;9.49;79.32
75045;BME280;63614;56.026;35.960;2023-10-13T00:48:11;97908.50;;;9.48;79.78
75045;BME280;63614;56.026;35.960;2023-10-13T00:50:38;97914.03;;;9.52;79.63
75045;BME280;63614;56.026;35.960;2023-10-13T00:53:04;97906.88;;;9.47;79.30
75045;BME280;63614;56.026;35.960;2023-10-13T00:55:29;97914.69;;;9.47;79.30
75045;BME280;63614;56.026;35.960;2023-10-13T00:57:59;97904.94;;;9.42;79.34
75045;BME280;63614;56.026;35.960;2023-10-13T01:00:32;97901.63;;;9.35;79.67
75045;BME280;63614;56.026;35.960;2023-10-13T01:02:58;97909.78;;;9.39;79.38
75045;BME280;63614;56.026;35.960;2023-10-13T01:05:32;97907.69;;;9.29;79.29
75045;BME280;63614;56.026;35.960;2023-10-13T01:08:02;97902.56;;;9.22;79.61
75045;BME280;63614;56.026;35.960;2023-10-13T01:10:28;97903.22;;;9.18;79.72
75045;BME280;63614;56.026;35.960;2023-10-13T01:12:57;97908.09;;;9.07;80.15
75045;BME280;63614;56.026;35.960;2023-10-13T01:15:28;97899.78;;;8.99;80.43
75045;BME280;63614;56.026;35.960;2023-10-13T01:18:08;97898.06;;;8.93;80.41
75045;BME280;63614;56.026;35.960;2023-10-13T01:20:37;97890.81;;;8.76;81.01
75045;BME280;63614;56.026;35.960;2023-10-13T01:23:12;97905.41;;;8.70;81.44
75045;BME280;63614;56.026;35.960;2023-10-13T01:25:47;97909.88;;;8.57;81.65
75045;BME280;63614;56.026;35.960;2023-10-13T01:28:14;97909.88;;;8.57;81.58
75045;BME280;63614;56.026;35.960;2023-10-13T01:30:42;97917.66;;;8.63;81.69
75045;BME280;63614;56.026;35.960;2023-10-13T01:33:07;97909.22;;;8.68;81.30
75045;BME280;63614;56.026;35.960;2023-10-13T01:35:36;97915.78;;;8.70;81.10
75045;BME280;63614;56.026;35.960;2023-10-13T01:38:07;97916.97;;;8.68;81.25
75045;BME280;63614;56.026;35.960;2023-10-13T01:40:33;97918.09;;;8.53;81.49
75045;BME280;63614;56.026;35.960;2023-10-13T01:43:00;97918.75;;;8.49;81.73
75045;BME280;63614;56.026;35.960;2023-10-13T01:45:27;97925.13;;;8.46;81.88
75045;BME280;63614;56.026;35.960;2023-10-13T01:47:55;97925.50;;;8.50;81.79
75045;BME280;63614;56.026;35.960;2023-10-13T01:50:21;97931.25;;;8.52;81.62
75045;BME280;63614;56.026;35.960;2023-10-13T01:52:54;97922.28;;;8.54;81.31
75045;BME280;63614;56.026;35.960;2023-10-13T01:55:38;97922.06;;;8.56;80.99
75045;BME280;63614;56.026;35.960;2023-10-13T01:58:11;97921.28;;;8.56;81.04
75045;BME280;63614;56.026;35.960;2023-10-13T02:00:41;97935.44;;;8.53;80.98
75045;BME280;63614;56.026;35.960;2023-10-13T02:03:08;97929.91;;;8.49;80.79
75045;BME280;63614;56.026;35.960;2023-10-13T02:05:40;97934.91;;;8.37;80.89
75045;BME280;63614;56.026;35.960;2023-10-13T02:08:09;97931.00;;;8.28;81.02
75045;BME280;63614;56.026;35.960;2023-10-13T02:10:36;97944.09;;;8.33;80.56
75045;BME280;63614;56.026;35.960;2023-10-13T02:13:11;97953.03;;;8.37;80.84
75045;BME280;63614;56.026;35.960;2023-10-13T02:15:40;97944.28;;;8.39;80.67
75045;BME280;63614;56.026;35.960;2023-10-13T02:18:08;97945.72;;;8.28;80.54
75045;BME280;63614;56.026;35.960;2023-10-13T02:20:34;97944.72;;;8.29;80.79
75045;BME280;63614;56.026;35.960;2023-10-13T02:23:07;97942.59;;;8.19;80.88
75045;BME280;63614;56.026;35.960;2023-10-13T02:25:36;97948.97;;;8.16;81.22
75045;BME280;63614;56.026;35.960;2023-10-13T02:28:12;97946.09;;;7.99;81.55
75045;BME280;63614;56.026;35.960;2023-10-13T02:30:41;97949.06;;;7.96;81.71
75045;BME280;63614;56.026;35.960;2023-10-13T02:33:12;97947.69;;;7.94;81.82
75045;BME280;63614;56.026;35.960;2023-10-13T02:35:39;97947.91;;;7.86;82.14
75045;BME280;63614;56.026;35.960;2023-10-13T02:38:09;97946.53;;;7.83;82.25
75045;BME280;63614;56.026;35.960;2023-10-13T02:40:41;97942.97;;;7.77;82.41
75045;BME280;63614;56.026;35.960;2023-10-13T02:43:07;97943.00;;;7.71;82.36
75045;BME280;63614;56.026;35.960;2023-10-13T02:45:33;97955.34;;;7.69;82.48
75045;BME280;63614;56.026;35.960;2023-10-13T02:48:02;97956.53;;;7.73;82.52
75045;BME280;63614;56.026;35.960;2023-10-13T02:50:42;97956.72;;;7.71;82.54
75045;BME280;63614;56.026;35.960;2023-10-13T02:53:10;97966.91;;;7.66;82.43
75045;BME280;63614;56.026;35.960;2023-10-13T02:55:39;97973.44;;;7.69;82.53
75045;BME280;63614;56.026;35.960;2023-10-13T02:58:13;97977.63;;;7.70;82.43
75045;BME280;63614;56.026;35.960;2023-10-13T03:00:40;97981.00;;;7.70;82.47
75045;BME280;63614;56.026;35.960;2023-10-13T03:03:06;97981.81;;;7.64;82.52
75045;BME280;63614;56.026;35.960;2023-10-13T03:05:35;97981.47;;;7.54;82.70
75045;BME280;63614;56.026;35.960;2023-10-13T03:08:05;97983.63;;;7.57;82.79
75045;BME280;63614;56.026;35.960;2023-10-13T03:10:30;97983.25;;;7.60;82.57
75045;BME280;63614;56.026;35.960;2023-10-13T03:12:56;97999.94;;;7.57;82.34
75045;BME280;63614;56.026;35.960;2023-10-13T03:15:21;97971.91;;;7.54;82.39
75045;BME280;63614;56.026;35.960;2023-10-13T03:17:55;98007.91;;;7.62;82.31
75045;BME280;63614;56.026;35.960;2023-10-13T03:20:23;98008.72;;;7.63;82.10
75045;BME280;63614;56.026;35.960;2023-10-13T03:22:55;98018.44;;;7.61;82.03
75045;BME280;63614;56.026;35.960;2023-10-13T03:25:21;98019.47;;;7.60;82.33
75045;BME280;63614;56.026;35.960;2023-10-13T03:27:51;98034.19;;;7.66;81.83
75045;BME280;63614;56.026;35.960;2023-10-13T03:30:16;98043.31;;;7.75;81.71
75045;BME280;63614;56.026;35.960;2023-10-13T03:32:42;98049.50;;;7.74;81.57
75045;BME280;63614;56.026;35.960;2023-10-13T03:35:19;98063.44;;;7.73;81.02
75045;BME280;63614;56.026;35.960;2023-10-13T03:37:51;98067.63;;;7.74;80.74
75045;BME280;63614;56.026;35.960;2023-10-13T03:40:16;98074.75;;;7.86;80.27
75045;BME280;63614;56.026;35.960;2023-10-13T03:42:48;98080.53;;;7.88;79.64
75045;BME280;63614;56.026;35.960;2023-10-13T03:45:37;98081.16;;;7.76;79.95
75045;BME280;63614;56.026;35.960;2023-10-13T03:48:10;98080.38;;;7.69;80.02
75045;BME280;63614;56.026;35.960;2023-10-13T03:50:37;98080.75;;;7.59;80.29
75045;BME280;63614;56.026;35.960;2023-10-13T03:53:12;98082.56;;;7.52;80.45
75045;BME280;63614;56.026;35.960;2023-10-13T03:55:38;98093.91;;;7.51;80.40
75045;BME280;63614;56.026;35.960;2023-10-13T03:58:04;98094.72;;;7.52;80.34
75045;BME280;63614;56.026;35.960;2023-10-13T04:00:30;98093.91;;;7.51;79.88
75045;BME280;63614;56.026;35.960;2023-10-13T04:02:56;98105.06;;;7.52;79.81
75045;BME280;63614;56.026;35.960;2023-10-13T04:05:28;98104.66;;;7.61;79.42
75045;BME280;63614;56.026;35.960;2023-10-13T04:08:19;98109.63;;;7.76;78.91
75045;BME280;63614;56.026;35.960;2023-10-13T04:10:51;98120.56;;;7.85;77.93
75045;BME280;63614;56.026;35.960;2023-10-13T04:13:17;98132.91;;;7.96;77.66
75045;BME280;63614;56.026;35.960;2023-10-13T04:15:45;98134.28;;;8.06;77.15
75045;BME280;63614;56.026;35.960;2023-10-13T04:18:29;98133.09;;;8.02;77.32
75045;BME280;63614;56.026;35.960;2023-10-13T04:20:59;98127.69;;;8.16;76.85
75045;BME280;63614;56.026;35.960;2023-10-13T04:23:44;98150.97;;;8.23;76.92
75045;BME280;63614;56.026;35.960;2023-10-13T04:26:28;98148.19;;;8.25;76.73
75045;BME280;63614;56.026;35.960;2023-10-13T04:29:02;98156.97;;;8.17;77.40
75045;BME280;63614;56.026;35.960;2023-10-13T04:31:36;98157.94;;;8.29;77.05
75045;BME280;63614;56.026;35.960;2023-10-13T04:34:25;98155.16;;;8.31;76.51
75045;BME280;63614;56.026;35.960;2023-10-13T04:36:53;98139.25;;;8.14;76.92
75045;BME280;63614;56.026;35.960;2023-10-13T04:39:36;98156.19;;;8.03;77.37
75045;BME280;63614;56.026;35.960;2023-10-13T04:42:03;98153.78;;;8.08;76.62
75045;BME280;63614;56.026;35.960;2023-10-13T04:44:49;98172.09;;;8.33;76.34
75045;BME280;63614;56.026;35.960;2023-10-13T04:47:17;98171.31;;;8.33;75.93
75045;BME280;63614;56.026;35.960;2023-10-13T04:49:46;98185.84;;;8.27;75.92
75045;BME280;63614;56.026;35.960;2023-10-13T04:52:11;98187.66;;;8.27;76.34
75045;BME280;63614;56.026;35.960;2023-10-13T04:54:44;98191.63;;;8.29;76.33
75045;BME280;63614;56.026;35.960;2023-10-13T04:57:16;98209.53;;;8.37;76.15
75045;BME280;63614;56.026;35.960;2023-10-13T04:59:58;98224.47;;;8.42;75.70
75045;BME280;63614;56.026;35.960;2023-10-13T05:02:39;98238.25;;;8.56;75.10
75045;BME280;63614;56.026;35.960;2023-10-13T05:05:09;98239.66;;;8.59;74.57
75045;BME280;63614;56.026;35.960;2023-10-13T05:07:44;98241.63;;;8.50;74.10
75045;BME280;63614;56.026;35.960;2023-10-13T05:10:29;98246.41;;;8.60;74.15
75045;BME280;63614;56.026;35.960;2023-10-13T05:13:30;98253.97;;;8.75;73.16
75045;BME280;63614;56.026;35.960;2023-10-13T05:16:14;98256.34;;;8.76;72.69
75045;BME280;63614;56.026;35.960;2023-10-13T05:18:58;98268.31;;;8.70;72.86
75045;BME280;63614;56.026;35.960;2023-10-13T05:21:42;98259.56;;;8.65;73.73
75045;BME280;63614;56.026;35.960;2023-10-13T05:24:26;98271.13;;;8.62;74.21
75045;BME280;63614;56.026;35.960;2023-10-13T05:27:10;98269.34;;;8.56;75.05
75045;BME280;63614;56.026;35.960;2023-10-13T05:29:54;98269.56;;;8.48;75.65
75045;BME280;63614;56.026;35.960;2023-10-13T05:32:38;98275.91;;;8.39;76.57
75045;BME280;63614;56.026;35.960;2023-10-13T05:35:23;98286.09;;;8.53;76.20
75045;BME280;63614;56.026;35.960;2023-10-13T05:38:08;98292.47;;;8.58;76.43
75045;BME280;63614;56.026;35.960;2023-10-13T05:41:02;98300.84;;;8.66;76.77
75045;BME280;63614;56.026;35.960;2023-10-13T05:43:46;98308.19;;;8.69;77.33
75045;BME280;63614;56.026;35.960;2023-10-13T05:46:30;98306.38;;;8.83;76.18
75045;BME280;63614;56.026;35.960;2023-10-13T05:49:05;98301.81;;;8.92;76.06
75045;BME280;63614;56.026;35.960;2023-10-13T05:51:54;98303.97;;;8.88;75.42
75045;BME280;63614;56.026;35.960;2023-10-13T05:54:25;98313.38;;;8.89;76.09
75045;BME280;63614;56.026;35.960;2023-10-13T05:57:09;98316.94;;;9.02;74.62
75045;BME280;63614;56.026;35.960;2023-10-13T05:59:53;98316.13;;;9.01;73.32
75045;BME280;63614;56.026;35.960;2023-10-13T06:02:37;98322.88;;;9.22;72.86
75045;BME280;63614;56.026;35.960;2023-10-13T06:05:21;98336.56;;;9.43;72.15
75045;BME280;63614;56.026;35.960;2023-10-13T06:08:05;98335.94;;;9.48;71.06
75045;BME280;63614;56.026;35.960;2023-10-13T06:10:50;98336.91;;;9.53;70.51
75045;BME280;63614;56.026;35.960;2023-10-13T06:13:33;98349.50;;;9.56;70.18
75045;BME280;63614;56.026;35.960;2023-10-13T06:16:18;98354.66;;;9.63;70.45
75045;BME280;63614;56.026;35.960;2023-10-13T06:19:02;98356.63;;;9.68;69.96
75045;BME280;63614;56.026;35.960;2023-10-13T06:21:46;98367.00;;;9.68;70.48
75045;BME280;63614;56.026;35.960;2023-10-13T06:24:31;98373.78;;;9.75;69.25
75045;BME280;63614;56.026;35.960;2023-10-13T06:27:15;98372.75;;;9.83;68.52
75045;BME280;63614;56.026;35.960;2023-10-13T06:29:59;98363.31;;;9.89;68.24
75045;BME280;63614;56.026;35.960;2023-10-13T06:32:26;98370.31;;;9.88;67.25
75045;BME280;63614;56.026;35.960;2023-10-13T06:34:55;98378.22;;;10.00;67.03
75045;BME280;63614;56.026;35.960;2023-10-13T06:37:30;98380.22;;;10.05;65.18
75045;BME280;63614;56.026;35.960;2023-10-13T06:40:00;98375.59;;;10.07;65.41
75045;BME280;63614;56.026;35.960;2023-10-13T06:42:41;98386.44;;;9.97;64.72
75045;BME280;63614;56.026;35.960;2023-10-13T06:45:10;98391.28;;;9.87;64.82
75045;BME280;63614;56.026;35.960;2023-10-13T06:47:37;98390.09;;;9.89;65.27
75045;BME280;63614;56.026;35.960;2023-10-13T06:50:09;98404.91;;;9.82;64.87
75045;BME280;63614;56.026;35.960;2023-10-13T06:52:45;98386.97;;;9.74;65.14
75045;BME280;63614;56.026;35.960;2023-10-13T06:55:10;98397.91;;;9.82;65.14
75045;BME280;63614;56.026;35.960;2023-10-13T06:57:56;98396.88;;;9.90;64.35
75045;BME280;63614;56.026;35.960;2023-10-13T07:00:27;98397.19;;;9.69;62.86
75045;BME280;63614;56.026;35.960;2023-10-13T07:03:06;98398.19;;;9.61;63.29
75045;BME280;63614;56.026;35.960;2023-10-13T07:05:37;98415.78;;;9.59;63.08
75045;BME280;63614;56.026;35.960;2023-10-13T07:08:06;98428.09;;;9.77;63.33
75045;BME280;63614;56.026;35.960;2023-10-13T07:10:32;98421.78;;;10.05;62.99
75045;BME280;63614;56.026;35.960;2023-10-13T07:13:10;98425.00;;;10.00;62.77
75045;BME280;63614;56.026;35.960;2023-10-13T07:15:39;98422.94;;;10.15;62.41
75045;BME280;63614;56.026;35.960;2023-10-13T07:18:11;98440.50;;;10.20;62.00
75045;BME280;63614;56.026;35.960;2023-10-13T07:20:38;98444.22;;;10.38;62.37
75045;BME280;63614;56.026;35.960;2023-10-13T07:23:10;98444.22;;;10.38;62.00
75045;BME280;63614;56.026;35.960;2023-10-13T07:25:37;98434.09;;;10.54;61.14
75045;BME280;63614;56.026;35.960;2023-10-13T07:28:06;98444.56;;;10.48;61.76
75045;BME280;63614;56.026;35.960;2023-10-13T07:30:36;98462.94;;;10.78;61.38
75045;BME280;63614;56.026;35.960;2023-10-13T07:33:15;98460.47;;;10.90;60.61
75045;BME280;63614;56.026;35.960;2023-10-13T07:35:48;98467.88;;;10.93;59.11
75045;BME280;63614;56.026;35.960;2023-10-13T07:38:25;98472.16;;;10.81;58.74
75045;BME280;63614;56.026;35.960;2023-10-13T07:40:51;98480.09;;;10.86;58.40
75045;BME280;63614;56.026;35.960;2023-10-13T07:43:17;98486.75;;;10.82;57.61
75045;BME280;63614;56.026;35.960;2023-10-13T07:45:49;98488.88;;;10.92;57.96
75045;BME280;63614;56.026;35.960;2023-10-13T07:48:16;98509.91;;;11.15;57.61
75045;BME280;63614;56.026;35.960;2023-10-13T07:50:46;98495.59;;;11.06;57.90
75045;BME280;63614;56.026;35.960;2023-10-13T07:53:11;98505.78;;;11.07;57.86
75045;BME280;63614;56.026;35.960;2023-10-13T07:56:00;98507.88;;;10.92;56.10
75045;BME280;63614;56.026;35.960;2023-10-13T07:58:30;98518.19;;;10.73;56.26
75045;BME280;63614;56.026;35.960;2023-10-13T08:00:58;98513.13;;;10.85;56.58
75045;BME280;63614;56.026;35.960;2023-10-13T08:03:42;98528.53;;;10.87;56.47
75045;BME280;63614;56.026;35.960;2023-10-13T08:06:12;98524.78;;;11.08;56.09
75045;BME280;63614;56.026;35.960;2023-10-13T08:08:40;98538.28;;;11.23;56.15
75045;BME280;63614;56.026;35.960;2023-10-13T08:11:10;98543.06;;;11.26;55.74
75045;BME280;63614;56.026;35.960;2023-10-13T08:14:03;98544.28;;;11.49;55.59
75045;BME280;63614;56.026;35.960;2023-10-13T08:16:39;98544.00;;;11.32;54.46
75045;BME280;63614;56.026;35.960;2023-10-13T08:19:25;98548.25;;;11.52;54.12
75045;BME280;63614;56.026;35.960;2023-10-13T08:21:57;98559.69;;;11.51;53.53
75045;BME280;63614;56.026;35.960;2023-10-13T08:24:46;98557.03;;;11.57;54.23
75045;BME280;63614;56.026;35.960;2023-10-13T08:27:13;98567.16;;;11.66;53.53
75045;BME280;63614;56.026;35.960;2023-10-13T08:29:57;98571.94;;;11.69;53.37
75045;BME280;63614;56.026;35.960;2023-10-13T08:32:23;98580.06;;;11.79;53.11
75045;BME280;63614;56.026;35.960;2023-10-13T08:35:01;98581.63;;;11.61;53.51
75045;BME280;63614;56.026;35.960;2023-10-13T08:37:31;98573.28;;;11.78;53.55
75045;BME280;63614;56.026;35.960;2023-10-13T08:40:23;98587.84;;;11.86;53.21
75045;BME280;63614;56.026;35.960;2023-10-13T08:42:58;98582.88;;;11.77;52.73
75045;BME280;63614;56.026;35.960;2023-10-13T08:45:31;98599.91;;;11.80;52.73
75045;BME280;63614;56.026;35.960;2023-10-13T08:48:01;98602.47;;;11.61;52.30
75045;BME280;63614;56.026;35.960;2023-10-13T08:50:49;98609.63;;;11.66;52.36
75045;BME280;63614;56.026;35.960;2023-10-13T08:53:17;98609.44;;;11.68;53.20
75045;BME280;63614;56.026;35.960;2023-10-13T08:56:03;98618.78;;;11.75;52.89
75045;BME280;63614;56.026;35.960;2023-10-13T08:58:42;98615.59;;;11.98;52.39
75045;BME280;63614;56.026;35.960;2023-10-13T09:01:24;98617.44;;;11.91;52.44
75045;BME280;63614;56.026;35.960;2023-10-13T09:04:09;98612.78;;;12.18;52.10
75045;BME280;63614;56.026;35.960;2023-10-13T09:06:50;98621.91;;;12.09;52.25
75045;BME280;63614;56.026;35.960;2023-10-13T09:09:29;98636.69;;;11.97;51.73
75045;BME280;63614;56.026;35.960;2023-10-13T09:12:12;98641.28;;;11.95;51.82
75045;BME280;63614;56.026;35.960;2023-10-13T09:14:39;98659.03;;;11.79;52.35
75045;BME280;63614;56.026;35.960;2023-10-13T09:17:25;98652.59;;;11.57;52.86
75045;BME280;63614;56.026;35.960;2023-10-13T09:20:02;98644.66;;;11.45;52.74
75045;BME280;63614;56.026;35.960;2023-10-13T09:22:47;98658.91;;;11.42;52.86
75045;BME280;63614;56.026;35.960;2023-10-13T09:25:32;98664.28;;;11.48;52.86
75045;BME280;63614;56.026;35.960;2023-10-13T09:28:14;98666.06;;;11.47;52.87
75045;BME280;63614;56.026;35.960;2023-10-13T09:30:44;98677.56;;;11.39;53.38
75045;BME280;63614;56.026;35.960;2023-10-13T09:33:10;98667.56;;;11.36;53.42
75045;BME280;63614;56.026;35.960;2023-10-13T09:35:46;98679.03;;;11.29;54.06
75045;BME280;63614;56.026;35.960;2023-10-13T09:38:15;98674.34;;;11.37;54.37
75045;BME280;63614;56.026;35.960;2023-10-13T09:40:42;98670.59;;;11.33;53.92
75045;BME280;63614;56.026;35.960;2023-10-13T09:43:18;98683.34;;;11.41;53.81
75045;BME280;63614;56.026;35.960;2023-10-13T09:45:48;98687.94;;;11.46;53.31
75045;BME280;63614;56.026;35.960;2023-10-13T09:48:33;98685.22;;;11.59;53.63
75045;BME280;63614;56.026;35.960;2023-10-13T09:51:01;98683.53;;;11.72;53.01
75045;BME280;63614;56.026;35.960;2023-10-13T09:53:29;98683.81;;;11.89;52.87
75045;BME280;63614;56.026;35.960;2023-10-13T09:58:49;98694.06;;;11.84;50.17
75045;BME280;63614;56.026;35.960;2023-10-13T10:01:17;98700.59;;;11.68;51.26
75045;BME280;63614;56.026;35.960;2023-10-13T10:04:05;98704.44;;;11.65;51.21
75045;BME280;63614;56.026;35.960;2023-10-13T10:06:36;98715.44;;;11.67;51.75
75045;BME280;63614;56.026;35.960;2023-10-13T10:09:06;98720.13;;;11.58;51.07
75045;BME280;63614;56.026;35.960;2023-10-13T10:17:22;98708.38;;;11.74;50.73
75045;BME280;63614;56.026;35.960;2023-10-13T10:19:55;98715.13;;;11.82;50.56
75045;BME280;63614;56.026;35.960;2023-10-13T10:22:33;98721.94;;;11.83;50.98
75045;BME280;63614;56.026;35.960;2023-10-13T10:25:01;98717.50;;;11.84;51.09
75045;BME280;63614;56.026;35.960;2023-10-13T10:27:29;98719.13;;;11.85;51.37
75045;BME280;63614;56.026;35.960;2023-10-13T10:29:56;98724.28;;;11.91;51.10
75045;BME280;63614;56.026;35.960;2023-10-13T10:32:35;98726.09;;;11.91;51.03
75045;BME280;63614;56.026;35.960;2023-10-13T10:35:02;98703.84;;;11.88;50.80
75045;BME280;63614;56.026;35.960;2023-10-13T10:37:36;98718.69;;;11.94;50.74
75045;BME280;63614;56.026;35.960;2023-10-13T10:40:06;98724.84;;;12.00;50.34
75045;BME280;63614;56.026;35.960;2023-10-13T10:42:35;98739.72;;;11.93;50.05
75045;BME280;63614;56.026;35.960;2023-10-13T10:45:08;98753.78;;;11.92;50.33
75045;BME280;63614;56.026;35.960;2023-10-13T10:47:34;98744.94;;;11.93;50.05
75045;BME280;63614;56.026;35.960;2023-10-13T10:50:04;98756.56;;;11.97;50.06
75045;BME280;63614;56.026;35.960;2023-10-13T10:52:45;98751.78;;;11.87;49.99
75045;BME280;63614;56.026;35.960;2023-10-13T10:55:19;98753.38;;;11.88;50.45
75045;BME280;63614;56.026;35.960;2023-10-13T10:57:57;98754.41;;;11.80;50.61
75045;BME280;63614;56.026;35.960;2023-10-13T11:00:28;98760.34;;;11.62;50.86
75045;BME280;63614;56.026;35.960;2023-10-13T11:03:07;98760.81;;;11.53;51.57
75045;BME280;63614;56.026;35.960;2023-10-13T11:05:45;98762.16;;;11.62;51.43
75045;BME280;63614;56.026;35.960;2023-10-13T11:08:24;98767.91;;;11.71;51.60
75045;BME280;63614;56.026;35.960;2023-10-13T11:11:00;98763.31;;;11.73;50.92
75045;BME280;63614;56.026;35.960;2023-10-13T11:13:41;98770.72;;;11.69;51.29
75045;BME280;63614;56.026;35.960;2023-10-13T11:16:20;98775.22;;;11.55;51.19
75045;BME280;63614;56.026;35.960;2023-10-13T11:18:59;98778.06;;;11.47;52.10
75045;BME280;63614;56.026;35.960;2023-10-13T11:21:28;98778.44;;;11.51;51.82
75045;BME280;63614;56.026;35.960;2023-10-13T11:23:55;98769.44;;;11.47;51.83
75045;BME280;63614;56.026;35.960;2023-10-13T11:26:21;98775.44;;;11.47;51.52
75045;BME280;63614;56.026;35.960;2023-10-13T11:28:59;98774.25;;;11.50;51.81
75045;BME280;63614;56.026;35.960;2023-10-13T11:31:30;98761.63;;;11.47;51.31
75045;BME280;63614;56.026;35.960;2023-10-13T11:33:56;98778.06;;;11.47;51.62
75045;BME280;63614;56.026;35.960;2023-10-13T11:36:22;98783.06;;;11.49;51.81
75045;BME280;63614;56.026;35.960;2023-10-13T11:38:51;98782.84;;;11.57;51.44
75045;BME280;63614;56.026;35.960;2023-10-13T11:41:23;98788.63;;;11.59;51.82
75045;BME280;63614;56.026;35.960;2023-10-13T11:43:50;98790.44;;;11.58;51.72
75045;BME280;63614;56.026;35.960;2023-10-13T11:46:20;98780.78;;;11.66;52.07
75045;BME280;63614;56.026;35.960;2023-10-13T11:49:11;98784.16;;;11.66;51.70
75045;BME280;63614;56.026;35.960;2023-10-13T11:51:58;98786.97;;;11.64;51.54
75045;BME280;63614;56.026;35.960;2023-10-13T11:54:37;98785.19;;;11.65;51.35
75045;BME280;63614;56.026;35.960;2023-10-13T11:57:07;98783.00;;;11.62;50.64
75045;BME280;63614;56.026;35.960;2023-10-13T11:59:39;98787.59;;;11.67;50.63
75045;BME280;63614;56.026;35.960;2023-10-13T12:02:16;98784.56;;;11.63;50.56
75045;BME280;63614;56.026;35.960;2023-10-13T12:04:54;98783.25;;;11.54;50.82
75045;BME280;63614;56.026;35.960;2023-10-13T12:07:22;98798.84;;;11.60;50.57
75045;BME280;63614;56.026;35.960;2023-10-13T12:10:16;98789.22;;;11.61;50.54
75045;BME280;63614;56.026;35.960;2023-10-13T12:13:08;98793.03;;;11.58;50.55
75045;BME280;63614;56.026;35.960;2023-10-13T12:15:39;98799.84;;;11.59;50.93
75045;BME280;63614;56.026;35.960;2023-10-13T12:18:22;98800.84;;;11.58;51.53
75045;BME280;63614;56.026;35.960;2023-10-13T12:20:49;98809.47;;;11.59;51.80
75045;BME280;63614;56.026;35.960;2023-10-13T12:23:20;98810.28;;;11.53;52.02
75045;BME280;63614;56.026;35.960;2023-10-13T12:26:02;98811.06;;;11.53;51.19
75045;BME280;63614;56.026;35.960;2023-10-13T12:28:34;98809.28;;;11.54;51.05
75045;BME280;63614;56.026;35.960;2023-10-13T12:31:06;98800.06;;;11.51;50.79
75045;BME280;63614;56.026;35.960;2023-10-13T12:33:39;98808.88;;;11.50;50.64
75045;BME280;63614;56.026;35.960;2023-10-13T12:36:15;98795.66;;;11.52;50.49
75045;BME280;63614;56.026;35.960;2023-10-13T12:38:47;98803.69;;;11.50;50.49
75045;BME280;63614;56.026;35.960;2023-10-13T12:41:29;98808.09;;;11.50;50.64
75045;BME280;63614;56.026;35.960;2023-10-13T12:44:22;98809.09;;;11.49;50.22
75045;BME280;63614;56.026;35.960;2023-10-13T12:47:09;98824.13;;;11.47;51.18
75045;BME280;63614;56.026;35.960;2023-10-13T12:49:53;98820.53;;;11.48;53.14
75045;BME280;63614;56.026;35.960;2023-10-13T12:52:38;98837.75;;;11.49;52.37
75045;BME280;63614;56.026;35.960;2023-10-13T12:55:04;98836.16;;;11.48;52.15
75045;BME280;63614;56.026;35.960;2023-10-13T12:57:41;98831.97;;;11.40;51.90
75045;BME280;63614;56.026;35.960;2023-10-13T13:00:13;98839.22;;;11.38;52.47
75045;BME280;63614;56.026;35.960;2023-10-13T13:02:46;98842.00;;;11.36;52.66
75045;BME280;63614;56.026;35.960;2023-10-13T13:05:19;98845.41;;;11.37;52.17
75045;BME280;63614;56.026;35.960;2023-10-13T13:07:55;98850.66;;;11.30;52.37
75045;BME280;63614;56.026;35.960;2023-10-13T13:10:21;98852.03;;;11.26;51.94
75045;BME280;63614;56.026;35.960;2023-10-13T13:13:03;98841.66;;;11.19;51.61
75045;BME280;63614;56.026;35.960;2023-10-13T13:15:32;98851.06;;;11.20;51.28
75045;BME280;63614;56.026;35.960;2023-10-13T13:18:01;98849.47;;;11.19;51.86
75045;BME280;63614;56.026;35.960;2023-10-13T13:20:38;98859.28;;;11.17;51.58
75045;BME280;63614;56.026;35.960;2023-10-13T13:23:24;98856.88;;;11.16;51.85
75045;BME280;63614;56.026;35.960;2023-10-13T13:25:52;98868.28;;;11.15;52.21
75045;BME280;63614;56.026;35.960;2023-10-13T13:28:20;98869.09;;;11.08;53.04
75045;BME280;63614;56.026;35.960;2023-10-13T13:30:51;98872.72;;;11.01;53.32
75045;BME280;63614;56.026;35.960;2023-10-13T13:33:21;98882.34;;;11.00;53.73
75045;BME280;63614;56.026;35.960;2023-10-13T13:35:54;98879.94;;;10.99;54.64
75045;BME280;63614;56.026;35.960;2023-10-13T13:38:21;98882.94;;;10.96;55.02
75045;BME280;63614;56.026;35.960;2023-10-13T13:41:03;98880.34;;;10.89;54.80